createdAt,value
2022-08-25T00:01:27.048Z,99394.78
2022-08-25T00:03:55.324Z,99388.38
2022-08-25T00:06:23.449Z,99374.59
2022-08-25T00:08:51.280Z,99385.50
2022-08-25T00:11:23.580Z,99383.25
2022-08-25T00:13:54.336Z,99380.84
2022-08-25T00:16:23.003Z,99382.78
2022-08-25T00:18:53.560Z,99391.59
2022-08-25T00:21:20.528Z,99398.31
2022-08-25T00:23:47.573Z,99405.50
2022-08-25T00:26:15.876Z,99414.34
2022-08-25T00:28:43.709Z,99417.53
2022-08-25T00:31:16.451Z,99402.16
2022-08-25T00:33:44.652Z,99401.84
2022-08-25T00:36:14.488Z,99410.31
2022-08-25T00:38:42.825Z,99406.47
2022-08-25T00:41:11.544Z,99405.38
2022-08-25T00:43:41.046Z,99411.44
2022-08-25T00:46:11.302Z,99400.88
2022-08-25T00:48:41.582Z,99406.63
2022-08-25T00:51:14.922Z,99420.41
2022-08-25T00:53:42.188Z,99409.81
2022-08-25T00:56:09.278Z,99406.78
2022-08-25T00:58:37.443Z,99401.50
2022-08-25T01:01:04.543Z,99400.72
2022-08-25T01:03:35.748Z,99399.91
2022-08-25T01:06:04.947Z,99393.50
2022-08-25T01:08:33.297Z,99396.53
2022-08-25T01:11:07.016Z,99405.00
2022-08-25T01:13:38.061Z,99399.41
2022-08-25T01:16:05.205Z,99394.75
2022-08-25T01:18:44.391Z,99384.84
2022-08-25T01:21:11.490Z,99386.75
2022-08-25T01:23:38.851Z,99388.69
2022-08-25T01:26:12.115Z,99393.31
2022-08-25T01:29:00.309Z,99394.13
2022-08-25T01:31:29.657Z,99398.28
2022-08-25T01:33:57.357Z,99391.25
2022-08-25T01:36:26.593Z,99375.88
2022-08-25T01:38:53.807Z,99387.72
2022-08-25T01:41:29.391Z,99388.22
2022-08-25T01:43:56.422Z,99380.53
2022-08-25T01:46:23.138Z,99374.28
2022-08-25T01:48:51.153Z,99373.00
2022-08-25T01:51:24.108Z,99369.66
2022-08-25T01:53:51.152Z,99368.84
2022-08-25T01:56:20.971Z,99362.59
2022-08-25T01:58:49.692Z,99362.59
2022-08-25T02:01:24.604Z,99369.13
2022-08-25T02:03:53.591Z,99364.19
2022-08-25T02:06:30.220Z,99362.25
2022-08-25T02:09:03.524Z,99365.47
2022-08-25T02:11:30.240Z,99356.97
2022-08-25T02:13:57.036Z,99359.22
2022-08-25T02:16:31.081Z,99357.94
2022-08-25T02:18:59.233Z,99362.75
2022-08-25T02:21:26.928Z,99374.25
2022-08-25T02:23:54.120Z,99372.16
2022-08-25T02:26:20.877Z,99363.22
2022-08-25T02:28:49.117Z,99368.66
2022-08-25T02:31:17.345Z,99374.25
2022-08-25T02:33:44.382Z,99372.66
2022-08-25T02:36:11.377Z,99369.44
2022-08-25T02:38:39.840Z,99380.16
2022-08-25T02:41:15.424Z,99383.19
2022-08-25T02:43:44.033Z,99385.75
2022-08-25T02:46:11.984Z,99369.72
2022-08-25T02:48:40.740Z,99370.72
2022-08-25T02:51:10.331Z,99363.03
2022-08-25T02:53:41.908Z,99359.19
2022-08-25T02:56:10.873Z,99367.03
2022-08-25T02:58:38.834Z,99358.41
2022-08-25T03:01:07.469Z,99365.91
2022-08-25T03:03:39.212Z,99368.31
2022-08-25T03:06:10.475Z,99371.97
2022-08-25T03:08:38.659Z,99374.69
2022-08-25T03:11:05.988Z,99364.94
2022-08-25T03:13:32.829Z,99365.56
2022-08-25T03:16:04.219Z,99369.03
2022-08-25T03:18:31.579Z,99372.56
2022-08-25T03:20:58.983Z,99372.53
2022-08-25T03:23:25.667Z,99329.47
2022-08-25T03:26:13.784Z,99300.28
2022-08-25T03:28:41.784Z,99298.25
2022-08-25T03:31:09.647Z,99291.09
2022-08-25T03:33:38.481Z,99289.38
2022-08-25T03:36:05.944Z,99289.69
2022-08-25T03:38:32.772Z,99273.59
2022-08-25T03:40:59.464Z,99278.88
2022-08-25T03:43:26.247Z,99274.38
2022-08-25T03:45:53.352Z,99276.16
2022-08-25T03:48:20.842Z,99271.53
2022-08-25T03:50:52.149Z,99277.44
2022-08-25T03:53:20.288Z,99279.66
2022-08-25T03:55:47.772Z,99281.25
2022-08-25T03:58:14.952Z,99286.88
2022-08-25T04:00:42.351Z,99280.16
2022-08-25T04:03:09.295Z,99280.78
2022-08-25T04:05:35.977Z,99278.06
2022-08-25T04:08:03.438Z,99288.41
2022-08-25T04:10:32.775Z,99264.44
2022-08-25T04:12:59.773Z,99245.78
2022-08-25T04:15:29.986Z,99230.22
2022-08-25T04:17:59.235Z,99207.06
2022-08-25T04:20:26.293Z,99182.19
2022-08-25T04:22:53.534Z,99180.19
2022-08-25T04:25:20.610Z,99157.22
2022-08-25T04:27:47.475Z,99161.38
2022-08-25T04:30:17.317Z,99133.56
2022-08-25T04:32:43.973Z,99121.75
2022-08-25T04:35:10.687Z,99117.28
2022-08-25T04:37:39.253Z,99084.03
2022-08-25T04:40:07.029Z,99062.16
2022-08-25T04:42:36.133Z,99036.56
2022-08-25T04:45:04.372Z,98997.75
2022-08-25T04:47:31.389Z,98987.19
2022-08-25T04:49:58.689Z,98983.66
2022-08-25T04:52:25.335Z,98962.56
2022-08-25T04:54:52.085Z,98958.69
2022-08-25T04:57:18.808Z,98957.03
2022-08-25T04:59:45.457Z,98967.56
2022-08-25T05:02:12.123Z,98982.88
2022-08-25T05:04:38.861Z,98974.28
2022-08-25T05:07:05.908Z,98946.28
2022-08-25T05:09:33.168Z,98951.69
2022-08-25T05:12:03.202Z,98935.59
2022-08-25T05:14:30.051Z,98920.81
2022-08-25T05:17:00.442Z,98915.25
2022-08-25T05:19:27.267Z,98921.66
2022-08-25T05:21:54.171Z,98923.19
2022-08-25T05:24:21.712Z,98924.84
2022-08-25T05:26:49.584Z,98901.19
2022-08-25T05:29:16.515Z,98876.34
2022-08-25T05:31:49.582Z,98874.75
2022-08-25T05:34:19.051Z,98875.06
2022-08-25T05:36:46.234Z,98878.91
2022-08-25T05:39:13.209Z,98881.66
2022-08-25T05:41:41.966Z,98898.75
2022-08-25T05:44:08.651Z,98896.06
2022-08-25T05:46:37.273Z,98882.41
2022-08-25T05:49:09.115Z,98868.59
2022-08-25T05:51:35.759Z,98855.72
2022-08-25T05:54:03.597Z,98857.06
2022-08-25T05:56:30.445Z,98859.09
2022-08-25T05:58:57.221Z,98864.91
2022-08-25T06:01:46.164Z,98870.03
2022-08-25T06:04:18.142Z,98844.94
2022-08-25T06:06:44.912Z,98818.63
2022-08-25T06:09:11.654Z,98817.91
2022-08-25T06:11:41.927Z,98819.91
2022-08-25T06:14:11.951Z,98827.25
2022-08-25T06:16:39.275Z,98835.16
2022-08-25T06:19:07.878Z,98801.44
2022-08-25T06:21:35.020Z,98784.84
2022-08-25T06:24:02.068Z,98777.59
2022-08-25T06:26:28.799Z,98782.75
2022-08-25T06:28:55.528Z,98798.44
2022-08-25T06:31:22.656Z,98771.19
2022-08-25T06:33:50.150Z,98754.13
2022-08-25T06:36:17.676Z,98750.75
2022-08-25T06:38:44.356Z,98747.28
2022-08-25T06:41:11.054Z,98755.47
2022-08-25T06:43:41.700Z,98736.78
2022-08-25T06:46:18.324Z,98720.41
2022-08-25T06:48:45.725Z,98710.72
2022-08-25T06:51:16.537Z,98709.59
2022-08-25T06:53:44.362Z,98695.88
2022-08-25T06:56:11.449Z,98706.63
2022-08-25T06:58:38.480Z,98708.47
2022-08-25T07:01:22.312Z,98726.34
2022-08-25T07:03:52.654Z,98735.97
2022-08-25T07:06:19.901Z,98750.28
2022-08-25T07:08:49.819Z,98785.00
2022-08-25T07:11:18.220Z,98788.16
2022-08-25T07:13:45.993Z,98805.09
2022-08-25T07:16:15.055Z,98830.44
2022-08-25T07:18:44.292Z,98850.72
2022-08-25T07:21:12.479Z,98880.41
2022-08-25T07:23:40.400Z,98901.78
2022-08-25T07:26:27.085Z,98943.50
2022-08-25T07:28:59.845Z,98965.72
2022-08-25T07:31:30.394Z,99001.25
2022-08-25T07:34:16.651Z,99032.44
2022-08-25T07:36:44.227Z,99069.16
2022-08-25T07:39:11.803Z,99095.28
2022-08-25T07:41:40.917Z,99116.66
2022-08-25T07:44:08.948Z,99120.00
2022-08-25T07:46:35.716Z,99135.06
2022-08-25T07:49:03.811Z,99171.81
2022-08-25T07:51:30.556Z,99198.25
2022-08-25T07:53:57.268Z,99226.63
2022-08-25T07:56:24.288Z,99237.47
2022-08-25T07:58:51.506Z,99250.59
2022-08-25T08:01:22.100Z,99262.91
2022-08-25T08:03:51.531Z,99277.19
2022-08-25T08:06:22.510Z,99294.19
2022-08-25T08:08:50.750Z,99303.03
2022-08-25T08:11:37.213Z,99320.16
2022-08-25T08:14:04.481Z,99330.84
2022-08-25T08:16:31.727Z,99343.63
2022-08-25T08:18:59.903Z,99351.66
2022-08-25T08:21:29.911Z,99362.81
2022-08-25T08:23:59.168Z,99374.00
2022-08-25T08:26:48.273Z,99389.47
2022-08-25T08:29:15.481Z,99397.88
2022-08-25T08:31:42.248Z,99423.22
2022-08-25T08:34:16.522Z,99436.78
2022-08-25T08:36:43.413Z,99440.84
2022-08-25T08:39:12.212Z,99454.34
2022-08-25T08:42:12.047Z,99469.41
2022-08-25T08:44:46.933Z,99468.72
2022-08-25T08:47:38.792Z,99474.41
2022-08-25T08:50:24.923Z,99491.13
2022-08-25T08:53:27.900Z,99492.06
2022-08-25T08:56:07.082Z,99502.75
2022-08-25T08:58:43.763Z,99499.31
2022-08-25T09:01:18.376Z,99515.97
2022-08-25T09:03:55.125Z,99520.84
2022-08-25T09:06:32.656Z,99529.63
2022-08-25T09:09:03.236Z,99540.75
2022-08-25T09:11:35.295Z,99540.78
2022-08-25T09:14:30.447Z,99541.28
2022-08-25T09:17:06.429Z,99555.59
2022-08-25T09:19:42.247Z,99580.53
2022-08-25T09:22:33.400Z,99596.47
2022-08-25T09:25:11.152Z,99606.75
2022-08-25T09:27:55.784Z,99612.41
2022-08-25T09:30:24.926Z,99622.75
2022-08-25T09:33:02.179Z,99623.59
2022-08-25T09:35:32.532Z,99622.88
2022-08-25T09:38:02.926Z,99630.06
2022-08-25T09:40:35.992Z,99639.66
2022-08-25T09:43:17.968Z,99633.38
2022-08-25T09:46:06.943Z,99646.03
2022-08-25T09:48:52.482Z,99672.09
2022-08-25T09:51:37.968Z,99689.91
2022-08-25T09:54:15.369Z,99687.88
2022-08-25T09:57:08.799Z,99689.91
2022-08-25T09:59:38.273Z,99675.31
2022-08-25T10:02:15.083Z,99684.91
2022-08-25T10:04:42.729Z,99678.91
2022-08-25T10:07:48.091Z,99666.59
2022-08-25T10:10:43.815Z,99661.06
2022-08-25T10:13:22.713Z,99663.44
2022-08-25T10:16:20.513Z,99662.78
2022-08-25T10:19:10.548Z,99688.13
2022-08-25T10:21:43.690Z,99682.31
2022-08-25T10:24:13.316Z,99752.75
2022-08-25T10:26:48.670Z,99744.47
2022-08-25T10:29:27.216Z,99761.09
2022-08-25T10:31:59.546Z,99784.88
2022-08-25T10:34:45.560Z,99801.53
2022-08-25T10:37:39.507Z,99785.69
2022-08-25T10:40:25.052Z,99793.69
2022-08-25T10:43:19.164Z,99813.00
2022-08-25T10:45:54.149Z,99806.38
2022-08-25T10:48:39.962Z,99829.69
2022-08-25T10:51:18.828Z,99819.06
2022-08-25T10:54:19.235Z,99842.09
2022-08-25T10:57:04.572Z,99842.78
2022-08-25T10:59:57.780Z,99835.78
2022-08-25T11:02:49.576Z,99840.56
2022-08-25T11:05:25.526Z,99854.09
2022-08-25T11:08:00.951Z,99856.47
2022-08-25T11:10:59.963Z,99858.06
2022-08-25T11:13:55.485Z,99863.59
2022-08-25T11:16:37.256Z,99861.19
2022-08-25T11:19:19.040Z,99872.81
2022-08-25T11:22:04.292Z,99882.66
2022-08-25T11:24:59.803Z,99859.34
2022-08-25T11:27:55.377Z,99879.13
2022-08-25T11:30:22.174Z,99874.75
2022-08-25T11:32:54.573Z,99870.13
2022-08-25T11:35:51.282Z,99900.94
2022-08-25T11:38:36.570Z,99900.94
2022-08-25T11:41:34.235Z,99895.47
2022-08-25T11:44:09.624Z,99905.69
2022-08-25T11:46:52.936Z,99912.09
2022-08-25T11:49:21.695Z,99912.88
2022-08-25T11:51:51.296Z,99916.75
2022-08-25T11:54:28.332Z,99910.91
2022-08-25T11:57:00.569Z,99936.59
2022-08-25T11:59:52.508Z,99941.75
2022-08-25T12:02:47.684Z,99944.63
2022-08-25T12:05:19.179Z,99931.41
2022-08-25T12:08:12.197Z,99934.28
2022-08-25T12:11:08.473Z,99930.47
2022-08-25T12:13:51.177Z,99930.75
2022-08-25T12:16:38.403Z,99925.66
2022-08-25T12:19:30.480Z,99926.44
2022-08-25T12:22:22.174Z,99916.88
2022-08-25T12:24:57.099Z,99918.56
2022-08-25T12:27:28.910Z,99921.28
2022-08-25T12:30:05.684Z,99918.47
2022-08-25T12:32:51.546Z,99899.13
2022-08-25T12:35:29.847Z,99892.03
2022-08-25T12:38:05.351Z,99889.22
2022-08-25T12:40:37.001Z,99895.66
2022-08-25T12:43:25.046Z,99905.97
2022-08-25T12:46:13.490Z,99910.66
2022-08-25T12:48:54.468Z,99914.69
2022-08-25T12:51:23.637Z,99913.09
2022-08-25T12:54:01.450Z,99900.03
2022-08-25T12:56:37.525Z,99897.00
2022-08-25T12:59:37.304Z,99876.72
2022-08-25T13:02:38.246Z,99876.31
2022-08-25T13:05:13.772Z,99877.97
2022-08-25T13:07:55.520Z,99875.53
2022-08-25T13:10:28.945Z,99887.94
2022-08-25T13:13:05.817Z,99887.91
2022-08-25T13:15:48.667Z,99896.63
2022-08-25T13:18:19.637Z,99882.44
2022-08-25T13:20:48.947Z,99877.59
2022-08-25T13:23:21.696Z,99880.84
2022-08-25T13:25:51.292Z,99872.16
2022-08-25T13:28:37.423Z,99861.00
2022-08-25T13:31:15.544Z,99860.25
2022-08-25T13:34:13.800Z,99858.72
2022-08-25T13:37:07.436Z,99885.25
2022-08-25T13:42:28.877Z,99888.91
2022-08-25T13:44:56.506Z,99885.66
2022-08-25T13:47:43.779Z,99888.50
2022-08-25T13:50:18.176Z,99879.38
2022-08-25T13:53:25.386Z,99875.00
2022-08-25T13:55:57.003Z,99876.22
2022-08-25T13:58:44.675Z,99896.88
2022-08-25T14:01:48.258Z,99892.91
2022-08-25T14:04:51.806Z,99910.41
2022-08-25T14:07:33.828Z,99906.41
2022-08-25T14:10:03.230Z,99896.91
2022-08-25T14:12:31.754Z,99908.78
2022-08-25T14:15:04.719Z,99885.75
2022-08-25T14:17:40.689Z,99896.88
2022-08-25T14:20:28.789Z,99903.25
2022-08-25T14:22:58.739Z,99901.25
2022-08-25T14:25:28.137Z,99900.50
2022-08-25T14:28:07.345Z,99909.63
2022-08-25T14:30:39.224Z,99917.94
2022-08-25T14:33:06.835Z,99902.47
2022-08-25T14:35:34.893Z,99922.34
2022-08-25T14:38:10.287Z,99914.38
2022-08-25T14:40:38.058Z,99919.91
2022-08-25T14:43:05.593Z,99922.28
2022-08-25T14:45:45.997Z,99926.19
2022-08-25T14:48:27.067Z,99942.91
2022-08-25T14:50:55.992Z,99953.25
2022-08-25T14:53:23.812Z,99950.72
2022-08-25T14:55:54.160Z,99966.31
2022-08-25T14:58:25.887Z,99963.44
2022-08-25T15:00:54.176Z,99974.84
2022-08-25T15:03:37.729Z,99973.00
2022-08-25T15:06:06.092Z,99974.78
2022-08-25T15:08:51.468Z,99970.44
2022-08-25T15:11:18.355Z,99978.44
2022-08-25T15:13:49.323Z,99977.53
2022-08-25T15:16:33.927Z,99978.56
2022-08-25T15:19:06.637Z,99979.25
2022-08-25T15:21:34.440Z,100000.81
2022-08-25T15:24:02.908Z,99989.72
2022-08-25T15:26:29.619Z,99978.50
2022-08-25T15:28:56.329Z,99977.81
2022-08-25T15:31:23.769Z,99972.19
2022-08-25T15:33:51.467Z,99977.00
2022-08-25T15:36:24.837Z,99973.84
2022-08-25T15:38:52.741Z,99981.00
2022-08-25T15:41:21.079Z,99987.44
2022-08-25T15:43:56.600Z,99982.56
2022-08-25T15:46:25.183Z,99985.88
2022-08-25T15:51:24.165Z,99983.44
2022-08-25T15:53:52.308Z,99977.13
2022-08-25T15:56:26.692Z,99969.09
2022-08-25T15:58:55.507Z,99981.13
2022-08-25T16:01:25.448Z,99970.75
2022-08-25T16:03:53.186Z,99970.72
2022-08-25T16:06:19.952Z,99968.00
2022-08-25T16:08:47.736Z,99971.56
2022-08-25T16:11:26.867Z,99970.81
2022-08-25T16:13:55.668Z,99975.59
2022-08-25T16:16:28.233Z,99977.13
2022-08-25T16:18:58.547Z,99970.78
2022-08-25T16:21:30.996Z,99965.66
2022-08-25T16:24:01.913Z,99965.66
2022-08-25T16:26:31.383Z,99966.84
2022-08-25T16:28:58.255Z,99956.50
2022-08-25T16:31:25.359Z,99961.25
2022-08-25T16:33:54.817Z,99964.47
2022-08-25T16:36:27.099Z,99958.13
2022-08-25T16:38:55.528Z,99956.50
2022-08-25T16:41:36.000Z,99937.03
2022-08-25T16:44:07.798Z,99881.81
2022-08-25T16:46:38.766Z,99887.34
2022-08-25T16:49:11.123Z,99852.78
2022-08-25T16:51:39.173Z,99843.66
2022-08-25T16:54:25.980Z,99836.91
2022-08-25T16:56:53.721Z,99811.09
2022-08-25T16:59:23.603Z,99792.03
2022-08-25T17:01:50.724Z,99805.53
2022-08-25T17:04:17.851Z,99788.06
2022-08-25T17:06:51.693Z,99761.03
2022-08-25T17:09:23.765Z,99768.19
2022-08-25T17:11:54.086Z,99735.63
2022-08-25T17:14:24.040Z,99702.63
2022-08-25T17:16:56.915Z,99699.91
2022-08-25T17:19:25.877Z,99674.38
2022-08-25T17:21:54.820Z,99687.50
2022-08-25T17:24:22.343Z,99666.81
2022-08-25T17:26:56.345Z,99611.94
2022-08-25T17:29:22.987Z,99613.91
2022-08-25T17:31:51.155Z,99565.78
2022-08-25T17:34:23.085Z,99567.78
2022-08-25T17:36:50.900Z,99537.56
2022-08-25T17:39:19.842Z,99515.38
2022-08-25T17:41:49.428Z,99538.31
2022-08-25T17:44:16.537Z,99508.75
2022-08-25T17:46:47.139Z,99515.06
2022-08-25T17:49:16.388Z,99512.66
2022-08-25T17:51:43.230Z,99471.78
2022-08-25T17:54:10.140Z,99477.84
2022-08-25T17:56:37.844Z,99508.47
2022-08-25T17:59:04.664Z,99497.59
2022-08-25T18:01:34.665Z,99444.22
2022-08-25T18:04:01.436Z,99447.44
2022-08-25T18:06:32.256Z,99444.69
2022-08-25T18:09:00.141Z,99420.00
2022-08-25T18:11:30.575Z,99368.84
2022-08-25T18:13:57.826Z,99357.50
2022-08-25T18:16:25.980Z,99371.06
2022-08-25T18:18:54.976Z,99378.19
2022-08-25T18:21:23.476Z,99374.84
2022-08-25T18:23:50.803Z,99341.81
2022-08-25T18:26:24.754Z,99331.94
2022-08-25T18:28:52.357Z,99338.44
2022-08-25T18:31:19.908Z,99350.69
2022-08-25T18:33:47.219Z,99332.94
2022-08-25T18:36:18.162Z,99324.44
2022-08-25T18:39:04.194Z,99274.69
2022-08-25T18:41:36.689Z,99242.66
2022-08-25T18:44:04.996Z,99252.31
2022-08-25T18:46:31.716Z,99251.88
2022-08-25T18:49:00.678Z,99249.19
2022-08-25T18:51:27.679Z,99248.66
2022-08-25T18:54:00.995Z,99233.31
2022-08-25T18:56:28.507Z,99215.41
2022-08-25T18:58:55.532Z,99210.75
2022-08-25T19:01:22.412Z,99201.41
2022-08-25T19:03:49.774Z,99204.41
2022-08-25T19:06:17.320Z,99197.56
2022-08-25T19:08:46.779Z,99116.50
2022-08-25T19:11:14.575Z,99093.16
2022-08-25T19:13:43.317Z,99106.28
2022-08-25T19:16:17.764Z,99116.13
2022-08-25T19:18:47.328Z,99124.72
2022-08-25T19:21:14.770Z,99127.13
2022-08-25T19:23:43.540Z,99134.03
2022-08-25T19:26:16.853Z,99131.13
2022-08-25T19:28:45.518Z,99109.16
2022-08-25T19:31:12.737Z,99116.25
2022-08-25T19:33:44.026Z,99121.59
2022-08-25T19:36:13.352Z,99109.78
2022-08-25T19:38:40.548Z,99107.03
2022-08-25T19:41:13.900Z,99115.03
2022-08-25T19:43:55.735Z,99104.16
2022-08-25T19:46:35.604Z,99085.94
2022-08-25T19:49:10.943Z,99083.63
2022-08-25T19:51:44.220Z,99085.38
2022-08-25T19:54:17.624Z,99101.31
2022-08-25T19:56:54.255Z,99090.41
2022-08-25T19:59:24.776Z,99095.47
2022-08-25T20:01:51.497Z,99091.28
2022-08-25T20:04:18.308Z,99093.59
2022-08-25T20:06:48.386Z,99085.50
2022-08-25T20:09:35.522Z,99085.00
2022-08-25T20:12:06.301Z,99072.38
2022-08-25T20:14:34.132Z,99076.16
2022-08-25T20:17:01.832Z,99069.28
2022-08-25T20:19:32.938Z,99073.81
2022-08-25T20:21:59.543Z,99091.50
2022-08-25T20:24:45.942Z,99093.81
2022-08-25T20:27:12.742Z,99106.25
2022-08-25T20:29:39.393Z,99108.81
2022-08-25T20:32:12.089Z,99101.06
2022-08-25T20:34:39.164Z,99088.94
2022-08-25T20:37:06.060Z,99074.81
2022-08-25T20:39:33.520Z,99064.31
2022-08-25T20:42:00.163Z,99046.19
2022-08-25T20:44:33.646Z,99055.72
2022-08-25T20:47:02.728Z,99060.59
2022-08-25T20:49:37.105Z,99075.34
2022-08-25T20:52:05.478Z,99061.75
2022-08-25T20:54:36.320Z,99067.25
2022-08-25T20:57:03.208Z,99078.09
2022-08-25T20:59:31.842Z,99085.34
2022-08-25T21:01:58.630Z,99095.00
2022-08-25T21:04:28.300Z,99090.56
2022-08-25T21:06:55.757Z,99096.38
2022-08-25T21:09:24.368Z,99093.41
2022-08-25T21:11:55.750Z,99098.13
2022-08-25T21:14:23.904Z,99094.25
2022-08-25T21:16:51.649Z,99097.00
2022-08-25T21:19:26.711Z,99107.03
2022-08-25T21:21:54.468Z,99098.09
2022-08-25T21:24:27.807Z,99091.91
2022-08-25T21:26:56.505Z,99082.56
2022-08-25T21:29:24.775Z,99090.66
2022-08-25T21:31:51.639Z,99086.44
2022-08-25T21:34:19.224Z,99090.66
2022-08-25T21:36:50.065Z,99087.94
2022-08-25T21:39:16.935Z,99087.13
2022-08-25T21:41:47.176Z,99083.94
2022-08-25T21:44:14.287Z,99090.13
2022-08-25T21:46:42.487Z,99089.31
2022-08-25T21:49:20.950Z,99091.53
2022-08-25T21:51:49.237Z,99098.41
2022-08-25T21:54:24.137Z,99085.41
2022-08-25T21:56:59.261Z,99082.69
2022-08-25T21:59:38.153Z,99083.03
2022-08-25T22:02:11.405Z,99078.50
2022-08-25T22:04:39.590Z,99071.00
2022-08-25T22:07:08.194Z,99066.66
2022-08-25T22:09:35.599Z,99071.78
2022-08-25T22:12:02.649Z,99080.00
2022-08-25T22:14:29.362Z,99081.59
2022-08-25T22:16:56.162Z,99073.03
2022-08-25T22:19:23.640Z,99069.84
2022-08-25T22:21:55.005Z,99066.13
2022-08-25T22:24:22.281Z,99074.13
2022-08-25T22:26:49.421Z,99060.88
2022-08-25T22:29:25.261Z,99073.31
2022-08-25T22:31:53.356Z,99081.00
2022-08-25T22:34:30.451Z,99077.34
2022-08-25T22:36:59.614Z,99073.72
2022-08-25T22:39:27.296Z,99064.88
2022-08-25T22:41:53.973Z,99053.03
2022-08-25T22:44:23.290Z,99045.28
2022-08-25T22:46:50.024Z,99046.66
2022-08-25T22:49:19.332Z,99054.41
2022-08-25T22:51:47.889Z,99052.13
2022-08-25T22:54:15.766Z,99054.41
2022-08-25T22:56:43.501Z,99051.69
2022-08-25T22:59:12.299Z,99041.06
2022-08-25T23:01:39.869Z,99034.03
2022-08-25T23:04:07.655Z,99029.97
2022-08-25T23:06:35.068Z,99028.03
2022-08-25T23:09:04.635Z,99031.44
2022-08-25T23:11:31.519Z,99027.47
2022-08-25T23:14:05.673Z,99023.47
2022-08-25T23:16:33.226Z,99013.34
2022-08-25T23:19:00.536Z,99006.38
2022-08-25T23:21:48.120Z,99007.97
2022-08-25T23:24:29.954Z,98997.28
2022-08-25T23:26:59.122Z,99009.41
2022-08-25T23:29:27.895Z,98991.84
2022-08-25T23:31:55.181Z,98995.91
2022-08-25T23:34:23.215Z,99004.56
2022-08-25T23:36:50.531Z,99011.53
2022-08-25T23:39:17.145Z,99012.81
2022-08-25T23:41:43.827Z,99015.09
2022-08-25T23:44:11.782Z,99014.19
2022-08-25T23:46:47.667Z,99014.75
2022-08-25T23:49:18.156Z,99000.28
2022-08-25T23:51:46.852Z,99000.28
2022-08-25T23:54:15.928Z,98994.38
2022-08-25T23:56:45.017Z,98995.97
2022-08-25T23:59:24.614Z,99009.63
